Time;durP1;ratioP1;P1;durP2;ratioP2;P2;SDS_P1;SDS_P2;PMS_P1;PMS_P2;Temp;Humidity;BMP_temperature;BMP_pressure;BME280_temperature;BME280_humidity;BME280_pressure;Samples;Min_cycle;Max_cycle;Signal;HPM_P1;HPM_P2
2024/01/05 00:01:50;;;;;;;10.45;6.45;;;;;;;7.08;94.11;97077.47;5212848;22;20661;-88
2024/01/05 00:03:54;;;;;;;10.23;6.13;;;;;;;7.07;93.45;97075.00;5212477;22;20164;-87
2024/01/05 00:06:08;;;;;;;11.73;5.75;;;;;;;7.08;93.14;97076.63;5214494;22;20942;-90
2024/01/05 00:08:16;;;;;;;9.70;6.03;;;;;;;7.07;93.36;97069.81;5242377;22;20161;-92
2024/01/05 00:10:22;;;;;;;9.52;6.20;;;;;;;7.03;94.19;97056.22;5242748;22;20184;-91
2024/01/05 00:12:47;;;;;;;8.65;5.60;;;;;;;7.01;94.32;97049.50;5245753;22;20197;-90
2024/01/05 00:14:52;;;;;;;8.05;5.53;;;;;;;7.00;93.77;97042.66;5217939;22;20196;-92
2024/01/05 00:17:10;;;;;;;10.00;5.45;;;;;;;7.00;93.27;97041.84;5243969;22;20162;-90
2024/01/05 00:19:14;;;;;;;13.00;6.20;;;;;;;6.99;93.61;97042.78;5217051;22;20183;-89
2024/01/05 00:21:21;;;;;;;8.43;5.38;;;;;;;6.99;94.42;97040.19;5216368;22;20843;-90
2024/01/05 00:23:29;;;;;;;12.48;6.18;;;;;;;6.98;94.06;97036.78;5191334;22;20191;-88
2024/01/05 00:25:36;;;;;;;8.55;5.82;;;;;;;6.99;93.86;97029.81;5218174;22;20260;-87
2024/01/05 00:27:42;;;;;;;11.48;6.85;;;;;;;7.02;94.38;97024.41;5191065;22;20710;-86
2024/01/05 00:29:46;;;;;;;11.95;6.35;;;;;;;7.04;94.65;97023.38;5215950;22;20172;-88
2024/01/05 00:31:52;;;;;;;10.10;5.95;;;;;;;7.05;94.61;97022.41;5212919;22;20640;-84
2024/01/05 00:33:57;;;;;;;8.82;6.00;;;;;;;7.05;94.66;97023.25;5239820;22;20224;-85
2024/01/05 00:36:04;;;;;;;8.98;5.30;;;;;;;6.98;93.66;97015.22;5239063;22;20176;-85
2024/01/05 00:38:09;;;;;;;12.50;5.85;;;;;;;6.97;93.40;97005.78;5214020;22;20182;-84
2024/01/05 00:40:19;;;;;;;6.45;4.72;;;;;;;6.95;92.98;96992.13;5213171;22;20726;-85
2024/01/05 00:42:28;;;;;;;7.63;5.28;;;;;;;6.93;93.94;96991.38;5237139;22;20196;-86
2024/01/05 00:44:33;;;;;;;9.43;4.85;;;;;;;6.92;93.92;97002.69;5213475;22;20172;-85
2024/01/05 00:46:38;;;;;;;10.65;6.38;;;;;;;6.92;93.91;97002.69;5213818;22;20638;-85
2024/01/05 00:48:44;;;;;;;13.13;5.60;;;;;;;6.90;93.74;97000.22;5239256;22;20175;-85
2024/01/05 00:50:49;;;;;;;10.27;5.10;;;;;;;6.92;94.81;96997.50;5212388;22;20206;-85
2024/01/05 00:52:54;;;;;;;5.97;4.45;;;;;;;6.92;94.51;96997.50;5186590;22;20176;-84
2024/01/05 00:55:04;;;;;;;10.45;5.05;;;;;;;6.91;94.94;96995.84;5213192;22;20196;-86
2024/01/05 00:57:09;;;;;;;9.20;4.57;;;;;;;6.91;94.83;96994.06;5212850;22;20530;-85
2024/01/05 00:59:19;;;;;;;9.18;4.45;;;;;;;6.91;95.30;97006.22;5214670;22;20506;-84
2024/01/05 01:01:24;;;;;;;8.65;4.70;;;;;;;6.92;94.65;97000.09;5240743;22;20166;-85
2024/01/05 01:03:29;;;;;;;7.38;4.28;;;;;;;6.90;93.91;97005.41;5210717;22;20184;-85
2024/01/05 01:05:36;;;;;;;7.22;5.15;;;;;;;6.87;94.22;97007.34;5187395;22;20624;-85
2024/01/05 01:07:42;;;;;;;8.82;5.18;;;;;;;6.83;93.38;97003.34;5239642;22;20164;-85
2024/01/05 01:09:46;;;;;;;8.80;4.70;;;;;;;6.84;94.43;97015.34;5212926;22;20197;-85
2024/01/05 01:11:50;;;;;;;7.75;4.60;;;;;;;6.81;94.24;97015.56;5213295;22;20531;-86
2024/01/05 01:13:56;;;;;;;7.90;4.47;;;;;;;6.81;93.85;97025.94;5186516;22;20515;-84
2024/01/05 01:15:59;;;;;;;7.70;3.80;;;;;;;6.81;93.98;97031.97;5212613;22;20259;-85
2024/01/05 01:18:02;;;;;;;8.63;4.50;;;;;;;6.82;93.92;97041.38;5188001;22;20180;-85
2024/01/05 01:20:08;;;;;;;7.13;4.10;;;;;;;6.83;94.35;97039.63;5238722;22;20259;-85
2024/01/05 01:22:11;;;;;;;7.18;4.30;;;;;;;6.81;93.98;97034.56;5239149;22;20249;-85
2024/01/05 01:24:15;;;;;;;6.85;3.95;;;;;;;6.78;93.12;97033.91;5238629;22;20167;-84
2024/01/05 01:26:18;;;;;;;6.22;4.00;;;;;;;6.76;93.26;97035.78;5240170;22;20188;-84
2024/01/05 01:28:22;;;;;;;6.80;3.83;;;;;;;6.73;93.03;97031.66;5213049;22;20251;-85
2024/01/05 01:30:26;;;;;;;8.73;3.90;;;;;;;6.75;93.59;97034.97;5213286;22;20192;-85
2024/01/05 01:32:29;;;;;;;6.00;4.30;;;;;;;6.73;94.17;97034.25;5212019;22;20201;-85
2024/01/05 01:34:32;;;;;;;6.20;4.00;;;;;;;6.74;94.62;97027.31;5212399;22;20173;-84
2024/01/05 01:36:35;;;;;;;7.53;4.40;;;;;;;6.74;94.52;97027.31;5211876;22;20186;-85
2024/01/05 01:38:39;;;;;;;6.40;4.15;;;;;;;6.75;93.72;97028.94;5240993;22;20619;-85
2024/01/05 01:40:46;;;;;;;7.50;4.10;;;;;;;6.75;94.53;97029.78;5213185;22;20722;-85
2024/01/05 01:42:49;;;;;;;10.73;4.75;;;;;;;6.75;94.11;97029.78;5239306;22;20201;-86
2024/01/05 01:44:53;;;;;;;6.25;3.72;;;;;;;6.74;94.15;97024.72;5212476;22;21013;-85
2024/01/05 01:46:59;;;;;;;9.45;4.45;;;;;;;6.74;94.28;97022.13;5240194;22;20176;-85
2024/01/05 01:49:02;;;;;;;6.40;4.20;;;;;;;6.74;94.78;97019.53;5213253;22;20174;-84
2024/01/05 01:51:06;;;;;;;7.43;3.80;;;;;;;6.70;94.39;97013.72;5187655;22;20250;-85
2024/01/05 01:53:09;;;;;;;6.50;4.40;;;;;;;6.68;93.86;97009.63;5211464;22;20171;-86
2024/01/05 01:55:13;;;;;;;11.00;4.53;;;;;;;6.67;93.40;97002.75;5211894;22;20179;-85
2024/01/05 01:57:17;;;;;;;7.43;4.45;;;;;;;6.65;93.48;96983.94;5213310;22;20510;-85
2024/01/05 01:59:21;;;;;;;7.68;4.85;;;;;;;6.60;93.99;96981.66;5238498;22;20175;-85
2024/01/05 02:01:24;;;;;;;7.03;4.25;;;;;;;6.56;93.96;96976.00;5238238;22;20171;-85
2024/01/05 02:03:28;;;;;;;12.43;4.85;;;;;;;6.53;93.53;96969.25;5211994;22;20530;-85
2024/01/05 02:05:32;;;;;;;10.70;4.90;;;;;;;6.56;93.63;96956.09;5209763;22;20180;-84
2024/01/05 02:07:36;;;;;;;6.20;3.90;;;;;;;6.55;93.54;96949.25;5212702;22;20218;-84
2024/01/05 02:09:39;;;;;;;9.05;4.30;;;;;;;6.56;94.35;96948.31;5186818;22;20176;-85
2024/01/05 02:11:42;;;;;;;7.10;4.28;;;;;;;6.56;93.89;96942.31;5212370;22;20206;-81
2024/01/05 02:13:48;;;;;;;5.38;3.63;;;;;;;6.60;94.53;96945.41;5186886;22;20198;-82
2024/01/05 02:15:51;;;;;;;8.30;4.10;;;;;;;6.63;94.82;96931.38;5211755;22;20266;-82
2024/01/05 02:18:15;;;;;;;8.50;4.38;;;;;;;6.61;94.98;96920.31;5195794;22;20218;-81
2024/01/05 02:20:25;;;;;;;7.15;4.60;;;;;;;6.62;95.98;96922.78;5212922;22;20198;-82
2024/01/05 02:22:30;;;;;;;8.20;4.10;;;;;;;6.63;94.90;96908.06;5212970;22;20217;-80
2024/01/05 02:24:35;;;;;;;5.70;3.85;;;;;;;6.62;94.03;96903.84;5214033;22;20193;-82
2024/01/05 02:26:39;;;;;;;7.25;4.25;;;;;;;6.62;94.74;96916.81;5240149;22;20227;-82
2024/01/05 02:28:45;;;;;;;8.80;5.03;;;;;;;6.57;94.39;96918.91;5215121;22;20180;-83
2024/01/05 02:30:48;;;;;;;11.50;3.75;;;;;;;6.60;93.99;96905.75;5240744;22;20246;-82
2024/01/05 02:32:52;;;;;;;6.63;3.80;;;;;;;6.69;94.04;96921.44;5239321;22;20178;-82
2024/01/05 02:34:55;;;;;;;6.50;3.90;;;;;;;6.62;95.31;96921.97;5213586;22;20164;-82
2024/01/05 02:36:58;;;;;;;14.55;4.00;;;;;;;6.61;95.14;96928.09;5241125;22;20183;-82
2024/01/05 02:39:02;;;;;;;6.85;3.90;;;;;;;6.65;95.42;96934.72;5188618;22;20172;-82
2024/01/05 02:41:07;;;;;;;5.38;3.70;;;;;;;6.62;95.28;96930.56;5214265;22;20562;-81
2024/01/05 02:43:09;;;;;;;6.70;3.30;;;;;;;6.64;95.17;96940.81;5239239;22;20205;-81
2024/01/05 02:45:12;;;;;;;5.88;3.30;;;;;;;6.65;96.07;96932.13;5241363;22;20642;-82
2024/01/05 02:47:16;;;;;;;4.18;2.53;;;;;;;6.66;95.79;96928.56;5188892;22;20196;-81
2024/01/05 02:49:18;;;;;;;4.88;2.92;;;;;;;6.66;96.51;96920.81;5213186;22;20175;-82
2024/01/05 02:51:23;;;;;;;7.50;3.10;;;;;;;6.68;96.05;96916.38;5189626;22;20615;-81
2024/01/05 02:53:26;;;;;;;5.50;2.90;;;;;;;6.67;95.72;96906.94;5213561;22;20534;-81
2024/01/05 02:55:28;;;;;;;8.82;3.50;;;;;;;6.68;95.88;96913.78;5239249;22;20206;-81
2024/01/05 02:57:33;;;;;;;5.15;3.60;;;;;;;6.70;96.50;96911.88;5237215;22;20244;-82
2024/01/05 02:59:37;;;;;;;4.97;2.85;;;;;;;6.70;95.89;96910.13;5241397;22;20285;-82
2024/01/05 03:01:40;;;;;;;6.35;3.15;;;;;;;6.72;96.23;96907.41;5213522;22;20223;-82
2024/01/05 03:03:44;;;;;;;5.07;3.30;;;;;;;6.72;96.06;96899.66;5213112;22;20224;-82
2024/01/05 03:05:52;;;;;;;5.50;2.90;;;;;;;6.72;96.10;96908.25;5240751;22;20223;-82
2024/01/05 03:07:55;;;;;;;7.45;3.70;;;;;;;6.73;95.49;96912.47;5240851;22;20172;-81
2024/01/05 03:09:59;;;;;;;6.18;3.13;;;;;;;6.75;95.08;96907.19;5213236;22;20196;-82
2024/01/05 03:12:05;;;;;;;6.80;3.15;;;;;;;6.75;95.52;96909.78;5214128;22;20269;-82
2024/01/05 03:14:10;;;;;;;4.30;2.63;;;;;;;6.73;95.61;96898.72;5214392;22;20905;-82
2024/01/05 03:16:13;;;;;;;4.70;2.80;;;;;;;6.73;95.24;96907.31;5240553;22;20182;-82
2024/01/05 03:18:16;;;;;;;7.00;3.42;;;;;;;6.71;95.91;96896.25;5213526;22;20186;-81
2024/01/05 03:20:20;;;;;;;5.38;2.85;;;;;;;6.71;96.02;96901.41;5240757;22;20511;-82
2024/01/05 03:22:24;;;;;;;5.53;2.58;;;;;;;6.73;96.21;96896.13;5213092;22;20180;-82
2024/01/05 03:24:31;;;;;;;5.97;2.75;;;;;;;6.72;95.48;96892.72;5241027;22;20191;-83
2024/01/05 03:26:34;;;;;;;6.93;3.28;;;;;;;6.72;96.09;96897.06;5188655;22;20180;-82
2024/01/05 03:28:39;;;;;;;4.68;2.55;;;;;;;6.72;96.48;96897.91;5241369;22;20631;-81
2024/01/05 03:30:44;;;;;;;5.82;2.72;;;;;;;6.75;95.46;96902.88;5240644;22;20248;-82
2024/01/05 03:32:48;;;;;;;6.18;2.50;;;;;;;6.76;96.56;96903.69;5212047;22;20795;-81
2024/01/05 03:34:50;;;;;;;4.88;2.58;;;;;;;6.78;95.48;96892.28;5187835;22;20183;-82
2024/01/05 03:36:53;;;;;;;6.10;2.40;;;;;;;6.77;95.94;96890.63;5240642;22;20180;-82
2024/01/05 03:38:56;;;;;;;5.40;2.80;;;;;;;6.77;94.68;96894.97;5188445;22;20191;-82
2024/01/05 03:40:59;;;;;;;6.45;2.92;;;;;;;6.76;95.03;96885.53;5188512;22;20596;-81
2024/01/05 03:43:03;;;;;;;8.48;2.90;;;;;;;6.75;95.61;96882.13;5238927;22;20228;-81
2024/01/05 03:45:08;;;;;;;7.63;2.80;;;;;;;6.73;95.21;96863.25;5240733;22;20199;-82
2024/01/05 03:47:13;;;;;;;4.10;2.97;;;;;;;6.74;95.52;96879.66;5187607;22;20214;-82
2024/01/05 03:49:16;;;;;;;9.05;3.17;;;;;;;6.70;95.01;96878.22;5214299;22;20172;-81
2024/01/05 03:51:20;;;;;;;6.60;3.85;;;;;;;6.67;94.02;96868.06;5212743;22;20219;-81
2024/01/05 03:53:23;;;;;;;9.57;4.03;;;;;;;6.60;93.21;96856.53;5212378;22;20179;-82
2024/01/05 03:55:26;;;;;;;10.25;3.53;;;;;;;6.57;93.42;96848.97;5214114;22;20168;-82
2024/01/05 03:57:30;;;;;;;7.43;3.10;;;;;;;6.57;93.87;96856.75;5213919;22;20170;-82
2024/01/05 03:59:33;;;;;;;5.30;2.67;;;;;;;6.58;93.86;96858.38;5241046;22;20250;-82
2024/01/05 04:01:43;;;;;;;5.03;2.47;;;;;;;6.58;94.08;96854.06;5187715;22;20197;-81
2024/01/05 04:03:47;;;;;;;6.20;2.78;;;;;;;6.57;94.70;96848.97;5212572;22;20211;-81
2024/01/05 04:05:51;;;;;;;9.35;2.70;;;;;;;6.58;95.05;96859.22;5187259;22;20223;-82
2024/01/05 04:07:54;;;;;;;4.80;3.35;;;;;;;6.59;95.12;96854.88;5213925;22;20176;-81
2024/01/05 04:09:58;;;;;;;4.53;2.58;;;;;;;6.61;95.23;96853.81;5239335;22;20231;-82
2024/01/05 04:12:00;;;;;;;6.40;2.88;;;;;;;6.59;95.21;96860.84;5212823;22;20689;-81
2024/01/05 04:14:04;;;;;;;5.28;2.63;;;;;;;6.57;94.92;96862.75;5212977;22;20639;-82
2024/01/05 04:16:08;;;;;;;4.70;2.50;;;;;;;6.58;94.76;96863.56;5240147;22;20522;-81
2024/01/05 04:18:11;;;;;;;6.05;2.83;;;;;;;6.56;93.99;96865.44;5238601;22;20179;-81
2024/01/05 04:20:15;;;;;;;4.47;2.60;;;;;;;6.53;94.35;96855.31;5213507;22;20175;-82
2024/01/05 04:22:19;;;;;;;7.00;2.55;;;;;;;6.48;94.33;96852.22;5237749;22;20749;-82
2024/01/05 04:24:23;;;;;;;9.02;2.92;;;;;;;6.48;94.69;96851.38;5239581;22;20224;-82
2024/01/05 04:26:25;;;;;;;7.38;2.70;;;;;;;6.44;94.01;96842.22;5240635;22;20173;-81
2024/01/05 04:28:29;;;;;;;5.65;3.03;;;;;;;6.42;94.21;96842.31;5240632;22;20180;-82
2024/01/05 04:30:38;;;;;;;5.50;2.40;;;;;;;6.41;94.19;96845.84;5213628;22;20168;-81
2024/01/05 04:32:44;;;;;;;6.95;2.70;;;;;;;6.42;94.57;96838.88;5240169;22;20565;-85
2024/01/05 04:34:46;;;;;;;5.75;2.63;;;;;;;6.40;94.98;96844.16;5240138;22;20638;-86
2024/01/05 04:36:51;;;;;;;6.57;2.97;;;;;;;6.39;94.58;96842.53;5212509;22;20177;-85
2024/01/05 04:38:54;;;;;;;7.47;2.60;;;;;;;6.40;94.58;96838.19;5187487;22;20176;-86
2024/01/05 04:40:57;;;;;;;5.63;2.95;;;;;;;6.42;94.88;96837.13;5213290;22;20176;-85
2024/01/05 04:43:01;;;;;;;6.15;3.05;;;;;;;6.43;95.25;96835.38;5212333;22;20179;-86
2024/01/05 04:45:06;;;;;;;5.03;2.60;;;;;;;6.45;94.46;96836.06;5212259;22;20203;-85
2024/01/05 04:47:18;;;;;;;6.25;2.70;;;;;;;6.45;95.66;96838.66;5215246;22;20178;-85
2024/01/05 04:49:21;;;;;;;4.43;2.40;;;;;;;6.48;95.22;96838.44;5187225;22;20205;-86
2024/01/05 04:51:24;;;;;;;4.75;2.67;;;;;;;6.48;94.93;96834.09;5212500;22;20173;-85
2024/01/05 04:53:29;;;;;;;4.70;2.45;;;;;;;6.48;95.35;96841.03;5237878;22;20172;-86
2024/01/05 04:55:32;;;;;;;7.05;3.10;;;;;;;6.50;95.07;96839.19;5240071;22;20174;-85
2024/01/05 04:57:36;;;;;;;6.07;3.40;;;;;;;6.53;95.40;96823.41;5239492;22;20640;-86
2024/01/05 04:59:41;;;;;;;7.60;2.88;;;;;;;6.54;94.89;96825.91;5213787;22;20173;-86
2024/01/05 05:01:44;;;;;;;5.78;2.83;;;;;;;6.53;94.88;96823.41;5212103;22;20212;-85
2024/01/05 05:03:48;;;;;;;4.97;2.40;;;;;;;6.49;94.67;96819.38;5239623;22;20179;-86
2024/01/05 05:05:51;;;;;;;4.55;2.40;;;;;;;6.46;94.04;96814.44;5212907;22;20171;-86
2024/01/05 05:07:55;;;;;;;7.45;2.92;;;;;;;6.42;94.68;96811.25;5240175;22;20173;-85
2024/01/05 05:10:00;;;;;;;8.63;3.10;;;;;;;6.42;94.65;96806.06;5187672;22;20177;-85
2024/01/05 05:12:05;;;;;;;7.15;3.58;;;;;;;6.39;95.18;96811.47;5212576;22;20243;-85
2024/01/05 05:14:09;;;;;;;8.93;3.20;;;;;;;6.35;95.52;96815.22;5238869;22;20180;-85
2024/01/05 05:16:12;;;;;;;6.32;3.38;;;;;;;6.33;95.54;96814.50;5212784;22;20201;-85
2024/01/05 05:18:16;;;;;;;8.93;2.95;;;;;;;6.32;95.03;96805.06;5213135;22;20578;-85
2024/01/05 05:20:19;;;;;;;4.10;2.90;;;;;;;6.33;95.53;96806.72;5213409;22;20179;-85
2024/01/05 05:22:23;;;;;;;5.45;3.22;;;;;;;6.33;94.50;96805.88;5239652;22;20204;-85
2024/01/05 05:24:26;;;;;;;6.28;3.20;;;;;;;6.32;94.91;96799.91;5237765;22;20205;-86
2024/01/05 05:26:31;;;;;;;8.30;5.82;;;;;;;6.31;94.65;96818.94;5238779;22;20202;-85
2024/01/05 05:28:34;;;;;;;4.90;2.92;;;;;;;6.31;94.65;96821.53;5213053;22;20224;-85
2024/01/05 05:30:38;;;;;;;8.38;2.85;;;;;;;6.28;94.14;96820.94;5240064;22;20181;-86
2024/01/05 05:32:41;;;;;;;4.57;4.00;;;;;;;6.24;94.00;96816.91;5238012;22;20185;-85
2024/01/05 05:34:44;;;;;;;5.70;3.42;;;;;;;6.23;93.47;96810.91;5186790;22;20171;-85
2024/01/05 05:36:48;;;;;;;5.10;3.40;;;;;;;6.20;93.84;96815.50;5212936;22;20175;-85
2024/01/05 05:38:57;;;;;;;5.07;2.80;;;;;;;6.21;94.19;96812.78;5213168;22;20215;-85
2024/01/05 05:41:00;;;;;;;6.80;3.30;;;;;;;6.23;94.45;96818.66;5240583;22;20652;-81
2024/01/05 05:43:06;;;;;;;7.55;2.85;;;;;;;6.20;94.43;96813.72;5186721;22;20274;-82
2024/01/05 05:45:10;;;;;;;10.50;3.83;;;;;;;6.24;94.50;96812.56;5238767;22;20195;-82
2024/01/05 05:47:14;;;;;;;6.18;3.08;;;;;;;6.23;94.27;96826.44;5240044;22;20259;-81
2024/01/05 05:49:18;;;;;;;5.55;2.90;;;;;;;6.18;94.01;96822.53;5240294;22;20179;-82
2024/01/05 05:51:22;;;;;;;5.65;2.97;;;;;;;6.16;93.77;96817.47;5213238;22;20606;-81
2024/01/05 05:53:25;;;;;;;6.22;2.50;;;;;;;6.13;93.80;96817.69;5211794;22;20242;-82
2024/01/05 05:55:29;;;;;;;6.80;3.08;;;;;;;6.16;94.44;96814.88;5239483;22;20172;-81
2024/01/05 05:57:32;;;;;;;6.80;2.75;;;;;;;6.14;94.36;96819.31;5239654;22;20182;-81
2024/01/05 05:59:37;;;;;;;6.20;2.85;;;;;;;6.15;94.47;96813.22;5240255;22;20179;-81
2024/01/05 06:01:40;;;;;;;6.88;3.58;;;;;;;6.12;93.54;96812.63;5185605;22;20578;-81
2024/01/05 06:03:44;;;;;;;5.53;3.20;;;;;;;6.11;93.89;96805.78;5211645;22;20626;-81
2024/01/05 06:05:47;;;;;;;4.70;3.00;;;;;;;6.10;94.55;96804.97;5239267;22;20195;-83
2024/01/05 06:07:51;;;;;;;5.78;2.95;;;;;;;6.11;93.83;96805.78;5212406;22;20203;-82
2024/01/05 06:09:54;;;;;;;6.07;2.80;;;;;;;6.13;93.71;96797.00;5239692;22;20183;-82
2024/01/05 06:11:57;;;;;;;5.50;2.83;;;;;;;6.11;93.54;96801.44;5212893;22;20172;-81
2024/01/05 06:14:04;;;;;;;6.78;3.85;;;;;;;6.08;93.78;96801.66;5238667;22;20195;-82
2024/01/05 06:16:08;;;;;;;5.78;3.40;;;;;;;6.07;93.61;96803.53;5211935;22;20172;-81
2024/01/05 06:18:13;;;;;;;5.47;2.63;;;;;;;6.08;94.01;96805.19;5240474;22;20491;-81
2024/01/05 06:20:16;;;;;;;5.40;3.25;;;;;;;6.07;94.29;96803.53;5239627;22;20572;-82
2024/01/05 06:22:20;;;;;;;7.28;3.75;;;;;;;6.07;94.24;96809.53;5237483;22;20185;-82
2024/01/05 06:24:24;;;;;;;7.15;3.60;;;;;;;6.09;94.54;96813.66;5238872;22;20183;-81
2024/01/05 06:26:27;;;;;;;7.07;2.92;;;;;;;6.08;94.33;96814.59;5186546;22;20194;-81
2024/01/05 06:28:31;;;;;;;6.68;3.17;;;;;;;6.08;94.72;96811.19;5212840;22;20551;-82
2024/01/05 06:30:34;;;;;;;9.15;3.70;;;;;;;6.07;94.34;96812.09;5239696;22;20179;-81
2024/01/05 06:32:39;;;;;;;5.88;3.42;;;;;;;6.07;94.56;96821.63;5186226;22;20173;-81
2024/01/05 06:34:43;;;;;;;7.60;4.20;;;;;;;6.08;94.81;96828.47;5212364;22;20211;-82
2024/01/05 06:36:46;;;;;;;5.60;3.10;;;;;;;6.06;94.80;96835.50;5186240;22;20254;-82
2024/01/05 06:38:49;;;;;;;8.82;3.45;;;;;;;6.07;94.39;96834.56;5212507;22;20174;-81
2024/01/05 06:40:53;;;;;;;7.70;3.17;;;;;;;6.08;94.28;96831.88;5211730;22;20660;-80
2024/01/05 06:42:57;;;;;;;6.75;3.78;;;;;;;6.06;94.72;96831.19;5238540;22;20181;-82
2024/01/05 06:45:00;;;;;;;7.43;3.90;;;;;;;6.07;94.93;96835.41;5186581;22;20206;-81
2024/01/05 06:47:06;;;;;;;7.85;3.60;;;;;;;6.08;95.07;96832.69;5186883;22;20597;-81
2024/01/05 06:49:11;;;;;;;5.57;3.22;;;;;;;6.09;94.86;96831.78;5240254;22;20172;-82
2024/01/05 06:51:15;;;;;;;5.43;3.55;;;;;;;6.07;94.81;96826.81;5212106;22;20174;-81
2024/01/05 06:53:18;;;;;;;6.20;3.25;;;;;;;6.09;94.80;96823.19;5238882;22;20611;-81
2024/01/05 06:55:21;;;;;;;5.20;3.60;;;;;;;6.08;94.81;96827.53;5210275;22;20202;-82
2024/01/05 06:57:25;;;;;;;5.13;3.22;;;;;;;6.11;95.01;96827.31;5239518;22;20175;-82
2024/01/05 06:59:30;;;;;;;6.40;3.33;;;;;;;6.12;94.97;96828.97;5212000;22;20173;-81
2024/01/05 07:01:34;;;;;;;7.55;3.85;;;;;;;6.15;95.28;96828.75;5211727;22;20191;-81
2024/01/05 07:03:38;;;;;;;6.07;3.63;;;;;;;6.16;94.90;96838.19;5238498;22;20188;-81
2024/01/05 07:05:43;;;;;;;5.03;3.00;;;;;;;6.16;95.43;96824.41;5212070;22;20197;-80
2024/01/05 07:07:49;;;;;;;5.85;3.40;;;;;;;6.13;94.61;96830.63;5212473;22;20625;-82
2024/01/05 07:09:52;;;;;;;6.65;3.20;;;;;;;6.11;94.50;96827.31;5213679;22;20196;-81
2024/01/05 07:11:54;;;;;;;9.23;3.50;;;;;;;6.10;95.06;96824.81;5239178;22;20786;-82
2024/01/05 07:13:58;;;;;;;7.93;3.72;;;;;;;6.08;95.11;96822.34;5240687;22;20179;-82
2024/01/05 07:16:01;;;;;;;8.20;3.00;;;;;;;6.09;95.09;96826.59;5238628;22;20169;-82
2024/01/05 07:18:05;;;;;;;7.60;3.55;;;;;;;6.09;95.13;96829.19;5213987;22;20647;-82
2024/01/05 07:20:11;;;;;;;3.53;2.75;;;;;;;6.08;94.74;96834.47;5213021;22;20189;-82
2024/01/05 07:22:16;;;;;;;6.70;3.20;;;;;;;6.07;94.13;96834.56;5211528;22;20253;-81
2024/01/05 07:24:19;;;;;;;9.20;3.50;;;;;;;6.06;94.58;96832.91;5187769;22;20558;-83
2024/01/05 07:26:23;;;;;;;7.95;3.60;;;;;;;6.04;94.85;96835.59;5213764;22;20192;-81
2024/01/05 07:28:27;;;;;;;8.15;3.58;;;;;;;6.03;94.53;96836.56;5213457;22;20264;-82
2024/01/05 07:30:31;;;;;;;7.15;3.88;;;;;;;6.03;94.21;96833.13;5240966;22;20175;-81
2024/01/05 07:32:54;;;;;;;6.22;3.72;;;;;;;6.03;94.70;96840.91;5216950;22;20261;-82
2024/01/05 07:34:58;;;;;;;6.40;3.80;;;;;;;6.03;94.19;96833.97;5188336;22;20264;-82
2024/01/05 07:37:01;;;;;;;6.80;3.92;;;;;;;6.00;93.97;96834.19;5213625;22;20195;-82
2024/01/05 07:39:07;;;;;;;7.70;4.45;;;;;;;6.01;93.53;96829.84;5211755;22;20202;-82
2024/01/05 07:41:16;;;;;;;6.25;4.05;;;;;;;5.99;94.35;96831.72;5213185;22;20190;-82
2024/01/05 07:43:19;;;;;;;8.60;3.95;;;;;;;5.97;94.13;96828.38;5212343;22;20176;-81
2024/01/05 07:45:23;;;;;;;6.55;3.50;;;;;;;5.95;93.85;96831.09;5238531;22;20175;-81
2024/01/05 07:47:30;;;;;;;7.85;3.70;;;;;;;5.93;94.96;96830.38;5187802;22;20599;-82
2024/01/05 07:49:34;;;;;;;11.35;4.60;;;;;;;5.96;94.57;96826.75;5212737;22;20681;-82
2024/01/05 07:51:37;;;;;;;10.07;4.75;;;;;;;5.94;94.01;96818.25;5238813;22;20252;-82
2024/01/05 07:53:43;;;;;;;8.07;4.07;;;;;;;5.95;94.16;96819.91;5240112;22;20171;-83
2024/01/05 07:55:48;;;;;;;6.20;4.10;;;;;;;5.96;94.35;96837.09;5187344;22;20705;-82
2024/01/05 07:57:51;;;;;;;6.35;4.13;;;;;;;5.95;95.18;96835.44;5213751;22;20172;-82
2024/01/05 07:59:54;;;;;;;7.45;3.95;;;;;;;5.94;94.74;96834.63;5214394;22;20202;-82
2024/01/05 08:01:56;;;;;;;6.90;3.80;;;;;;;5.95;94.94;96830.28;5212189;22;20182;-82
2024/01/05 08:04:00;;;;;;;5.00;3.90;;;;;;;5.97;94.94;96828.38;5240292;22;20189;-83
2024/01/05 08:06:03;;;;;;;10.38;4.40;;;;;;;5.98;94.76;96830.06;5213081;22;20282;-81
2024/01/05 08:08:07;;;;;;;9.50;4.40;;;;;;;6.00;94.63;96820.41;5213115;22;20213;-83
2024/01/05 08:10:11;;;;;;;8.65;4.40;;;;;;;6.02;94.63;96827.13;5212787;22;20178;-82
2024/01/05 08:12:16;;;;;;;6.28;4.60;;;;;;;6.06;94.95;96827.75;5212327;22;20184;-82
2024/01/05 08:14:20;;;;;;;6.05;3.85;;;;;;;6.08;95.00;96829.28;5213364;22;20264;-82
2024/01/05 08:16:25;;;;;;;7.68;4.45;;;;;;;6.11;94.72;96835.06;5213437;22;20202;-82
2024/01/05 08:18:29;;;;;;;9.23;4.85;;;;;;;6.13;94.93;96829.78;5187072;22;20575;-83
2024/01/05 08:20:33;;;;;;;8.57;5.20;;;;;;;6.16;95.05;96834.75;5186290;22;20615;-82
2024/01/05 08:22:38;;;;;;;10.60;6.72;;;;;;;6.16;94.96;96837.34;5240242;22;20288;-83
2024/01/05 08:24:41;;;;;;;8.98;5.30;;;;;;;6.19;95.46;96832.78;5241635;22;20264;-83
2024/01/05 08:26:45;;;;;;;6.25;4.50;;;;;;;6.26;94.92;96831.41;5213847;22;20933;-84
2024/01/05 08:28:49;;;;;;;5.70;4.47;;;;;;;6.26;94.57;96821.03;5187827;22;20183;-85
2024/01/05 08:30:53;;;;;;;6.75;4.70;;;;;;;6.29;94.46;96820.81;5239099;22;20172;-84
2024/01/05 08:32:59;;;;;;;9.50;5.15;;;;;;;6.29;95.17;96807.88;5240187;22;20167;-83
2024/01/05 08:35:04;;;;;;;13.50;5.80;;;;;;;6.36;94.52;96814.28;5214202;22;20745;-83
2024/01/05 08:37:07;;;;;;;9.70;6.00;;;;;;;6.38;94.97;96819.34;5213835;22;20176;-84
2024/01/05 08:39:11;;;;;;;12.85;7.22;;;;;;;6.40;94.88;96813.09;5213484;22;20692;-85
2024/01/05 08:41:14;;;;;;;10.20;6.82;;;;;;;6.44;95.08;96824.91;5241092;22;20201;-85
2024/01/05 08:43:18;;;;;;;13.27;7.60;;;;;;;6.47;94.35;96827.25;5212530;22;20211;-82
2024/01/05 08:45:23;;;;;;;12.88;6.35;;;;;;;6.50;94.96;96837.41;5187344;22;20261;-83
2024/01/05 08:47:44;;;;;;;7.05;5.05;;;;;;;6.55;95.35;96830.13;5191518;22;20222;-85
2024/01/05 08:49:48;;;;;;;10.40;5.38;;;;;;;6.57;95.20;96828.25;5213666;22;20624;-85
2024/01/05 08:51:51;;;;;;;10.38;5.97;;;;;;;6.62;95.07;96828.75;5187838;22;20201;-87
2024/01/05 08:53:59;;;;;;;10.98;5.57;;;;;;;6.63;94.33;96823.44;5188140;22;20245;-94
2024/01/05 08:56:03;;;;;;;7.03;4.93;;;;;;;6.68;95.51;96828.31;5213722;22;20619;-83
2024/01/05 08:58:06;;;;;;;15.00;9.65;;;;;;;6.77;94.98;96832.81;5212552;22;20694;-86
2024/01/05 09:00:11;;;;;;;11.65;8.38;;;;;;;6.85;95.07;96826.09;5186155;22;20183;-87
2024/01/05 09:02:19;;;;;;;9.93;6.25;;;;;;;6.89;94.84;96826.72;5193400;22;20833;-86
2024/01/05 09:04:23;;;;;;;10.25;7.75;;;;;;;6.95;94.77;96841.81;5212310;22;20172;-87
2024/01/05 09:06:27;;;;;;;11.30;6.57;;;;;;;7.03;94.69;96844.66;5186902;22;20179;-87
2024/01/05 09:08:30;;;;;;;10.32;6.35;;;;;;;7.07;95.52;96839.94;5213905;22;20261;-85
2024/01/05 09:10:34;;;;;;;8.50;5.75;;;;;;;7.10;94.41;96834.53;5213882;22;20260;-88
2024/01/05 09:12:39;;;;;;;10.85;5.97;;;;;;;7.18;95.19;96842.56;5213279;22;20195;-91
2024/01/05 09:14:43;;;;;;;12.27;5.85;;;;;;;7.23;94.90;96843.06;5213660;22;20259;-92
2024/01/05 09:16:45;;;;;;;17.30;5.88;;;;;;;7.25;95.57;96841.16;5213809;22;20179;-88
2024/01/05 09:18:50;;;;;;;8.70;6.32;;;;;;;7.29;95.47;96847.78;5188007;22;20183;-93
2024/01/05 09:20:54;;;;;;;7.53;5.80;;;;;;;7.36;94.86;96845.53;5189614;22;20190;-91
2024/01/05 09:23:03;;;;;;;8.07;5.47;;;;;;;7.39;93.90;96847.91;5192776;22;20598;-96
2024/01/05 09:25:07;;;;;;;9.35;5.47;;;;;;;7.42;94.25;96852.88;5213144;22;20883;-87
2024/01/05 09:27:15;;;;;;;10.90;5.97;;;;;;;7.45;94.23;96856.03;5240716;22;20528;-92
2024/01/05 09:29:19;;;;;;;13.05;8.60;;;;;;;7.49;94.70;96863.47;5214458;22;20180;-92
2024/01/05 09:31:28;;;;;;;10.00;6.70;;;;;;;7.49;95.02;96860.06;5215646;22;20178;-95
2024/01/05 09:33:32;;;;;;;12.32;7.00;;;;;;;7.55;95.07;96865.59;5239414;22;20176;-87
2024/01/05 09:35:37;;;;;;;9.77;6.80;;;;;;;7.58;94.87;96859.38;5212885;22;20168;-89
2024/01/05 09:38:00;;;;;;;9.25;5.60;;;;;;;7.60;95.07;96865.25;5216845;22;20601;-86
2024/01/05 09:40:25;;;;;;;7.55;6.30;;;;;;;7.63;94.52;96865.03;5195346;22;20193;-88
2024/01/05 09:42:50;;;;;;;11.07;6.85;;;;;;;7.66;95.00;96864.78;5216145;22;20573;-86
2024/01/05 09:45:14;;;;;;;12.00;6.20;;;;;;;7.69;94.86;96874.94;5194471;22;20294;-86
2024/01/05 09:47:38;;;;;;;10.93;6.30;;;;;;;7.72;95.44;96882.47;5217262;22;20239;-92
2024/01/05 09:50:04;;;;;;;10.50;6.32;;;;;;;7.75;95.35;96883.06;5217945;22;20608;-93
2024/01/05 09:52:30;;;;;;;11.27;6.78;;;;;;;7.77;95.22;96894.19;5195271;22;20651;-87
2024/01/05 09:54:53;;;;;;;9.85;5.82;;;;;;;7.81;96.05;96889.56;5216916;22;20164;-95
2024/01/05 09:57:18;;;;;;;8.88;5.78;;;;;;;7.84;95.49;96892.75;5216266;22;20608;-87